Flight Track Log - Related Links

Times and Time Zones

All times are in EDT time to prevent confusion due to time zone crossing. See the N498QS flight status page for this flight to view local times or setup timezone preferences in your user account.

Time Position Orientation Groundspeed Altitude Reporting Facility
EDT Latitude Longitude Course Direction KTS MPH feet Rate Location/Type
Tue 09:28:03 AM 42.3167 -71.0000 160° South 222 255 2,300  Level KA90
Tue 09:29:09 AM 42.3167 -70.9000 90° East 261 300 5,400 2,952 Climbing KA90
Tue 09:30:09 AM 42.3333 -70.7833 79° East 297 342 8,500 2,585 Climbing KA90
Tue 09:31:19 AM 42.2742 -70.6753 126° Southeast 319 367 11,000 2,123 Climbing Boston Center
Tue 09:32:19 AM 42.1814 -70.6106 153° Southeast 330 380 13,100 2,250 Climbing Boston Center
Tue 09:33:19 AM 42.0803 -70.5464 155° Southeast 371 427 15,500 2,250 Climbing Boston Center
Tue 09:34:19 AM 41.9728 -70.4769 154° Southeast 397 457 17,600 1,950 Climbing Boston Center
Tue 09:35:19 AM 41.8736 -70.4131 154° Southeast 427 491 19,400 1,700 Climbing Boston Center
Tue 09:36:19 AM 41.7575 -70.3306 152° Southeast 442 509 21,000 1,471 Climbing Boston Center
Tue 09:37:54 AM 41.5736 -70.2153 155° Southeast 458 527 23,200 1,451 Climbing New York Center
Tue 09:38:52 AM 41.4525 -70.1386 155° Southeast 471 542 24,700 1,664 Climbing New York Center
Tue 09:39:53 AM 41.3333 -70.0622 154° Southeast 476 548 26,500 1,426 Climbing New York Center
Tue 09:40:54 AM 41.2244 -69.9558 144° Southeast 476 548 27,600 1,119 Climbing New York Center
Tue 09:41:51 AM 41.1361 -69.8219 131° Southeast 475 547 28,700 1,017 Climbing New York Center
Tue 09:42:52 AM 41.0475 -69.6883 131° Southeast 480 552 29,600 934 Climbing New York Center
Tue 09:43:53 AM 40.9525 -69.5525 133° Southeast 491 565 30,600 992 Climbing New York Center
Tue 09:44:53 AM 40.8639 -69.4194 131° Southeast 491 565 31,600 1,017 Climbing New York Center
Tue 09:45:51 AM 40.7706 -69.2814 132° Southeast 491 565 32,600 706 Climbing New York Center
Tue 09:46:52 AM 40.6753 -69.1522 134° Southeast 491 565 33,000 198 Climbing New York Center
Tue 09:47:52 AM 40.5836 -69.0178 132° Southeast 491 565 33,000  Level New York Center
Tue 09:48:53 AM 40.4881 -68.8864 134° Southeast 491 565 33,000  Level New York Center
Tue 09:49:52 AM 40.3964 -68.7525 132° Southeast 491 565 33,000  Level New York Center
Tue 09:50:51 AM 40.3003 -68.6192 133° Southeast 491 565 33,000  Level New York Center
Tue 09:51:51 AM 40.2042 -68.4889 134° Southeast 491 565 33,000  Level New York Center
Tue 09:52:52 AM 40.1078 -68.3561 133° Southeast 491 565 33,000  Level New York Center
Tue 09:53:53 AM 40.0114 -68.2267 134° Southeast 491 565 33,000  Level New York Center
Tue 09:54:51 AM 39.8931 -68.1442 152° Southeast 474 545 33,000  Level New York Center
Tue 09:55:53 AM 39.7747 -68.0756 156° South 474 545 33,000  Level New York Center
Tue 09:56:51 AM 39.6522 -68.0075 157° South 474 545 33,000  Level New York Center
Tue 09:57:52 AM 39.5297 -67.9419 158° South 474 545 33,000  Level New York Center
Tue 09:58:53 AM 39.4114 -67.8686 154° Southeast 474 545 33,000  Level New York Center
Tue 09:59:51 AM 39.2908 -67.8039 157° South 474 545 33,000  Level New York Center
Tue 10:00:52 AM 39.1686 -67.7444 159° South 474 545 33,000  Level New York Center
Tue 10:01:53 AM 39.0478 -67.6692 154° Southeast 479 551 33,000  Level New York Center
Tue 10:02:53 AM 38.9253 -67.6075 159° South 479 551 33,000  Level New York Center
Tue 10:03:51 AM 38.8044 -67.5356 155° Southeast 479 551 33,000  Level New York Center
Tue 10:04:51 AM 38.6797 -67.4692 157° South 479 551 33,000  Level New York Center
Tue 10:06:00 AM 38.5551 -67.3994 156° South  Level FlightAware Approximate
Tue 10:08:44 AM 38.8833 -67.5667 157° South 463 533 33,000  Level New York Oceanic (ODAPS)
Tue 10:13:00 AM 37.7940 -66.9843 157° South  Level FlightAware Approximate
Tue 10:14:00 AM 37.6852 -66.9258 157° South  Level FlightAware Approximate
Tue 10:15:00 AM 37.3835 -66.7653 157° South 463 533 33,000  Level FlightAware Transoceanic
Tue 10:15:56 AM 37.4500 -66.8167 157° South 475 547 33,000  Level New York Oceanic (ODAPS)
Tue 10:16:00 AM 37.2583 -66.7000 157° South 463 533 33,000  Level FlightAware Transoceanic
Tue 10:17:00 AM 37.1330 -66.6349 158° South 463 533 33,000  Level FlightAware Transoceanic
Tue 10:18:00 AM 37.0077 -66.5700 158° South 463 533 33,000  Level FlightAware Transoceanic
Tue 10:19:00 AM 36.8824 -66.5053 158° South 463 533 33,000  Level FlightAware Transoceanic
Tue 10:20:00 AM 36.7570 -66.4409 158° South 463 533 33,000  Level FlightAware Transoceanic
Tue 10:21:00 AM 36.6316 -66.3766 158° South 463 533 33,000  Level FlightAware Transoceanic
Tue 10:22:00 AM 36.4735 -66.3050 157° South 475 547 33,000  Level FlightAware Transoceanic
Tue 10:23:00 AM 36.3513 -66.2420 157° South 475 547 33,000  Level FlightAware Transoceanic
Tue 10:24:00 AM 36.2291 -66.1792 158° South 475 547 33,000  Level FlightAware Transoceanic
Tue 10:25:00 AM 36.1068 -66.1165 158° South 475 547 33,000  Level FlightAware Transoceanic
Tue 10:26:00 AM 35.9845 -66.0540 158° South 475 547 33,000  Level FlightAware Transoceanic
Tue 10:27:00 AM 35.8622 -65.9918 158° South 475 547 33,000  Level FlightAware Transoceanic
Tue 10:28:00 AM 35.7398 -65.9297 158° South 475 547 33,000  Level FlightAware Transoceanic
Tue 10:29:00 AM 35.6174 -65.8678 158° South 475 547 33,000  Level FlightAware Transoceanic
Tue 10:30:00 AM 35.4950 -65.8062 158° South 475 547 33,000  Level FlightAware Transoceanic
Tue 10:31:00 AM 35.3725 -65.7447 158° South 475 547 33,000  Level FlightAware Transoceanic
Tue 10:32:00 AM 35.2500 -65.6833 164° South 475 547 33,000  Level FlightAware Transoceanic
Tue 10:32:04 AM 35.2500 -65.6833 164° South 469 540 33,000  Level New York Oceanic (ODAPS)
Tue 10:33:00 AM 35.1191 -65.6364 164° South 475 547 33,000  Level FlightAware Transoceanic
Tue 10:34:00 AM 34.9882 -65.5896 164° South 475 547 33,000  Level FlightAware Transoceanic
Tue 10:35:00 AM 34.8573 -65.5429 164° South 475 547 33,000  Level FlightAware Transoceanic
Tue 10:36:00 AM 34.7264 -65.4964 164° South 475 547 33,000  Level FlightAware Transoceanic
Tue 10:37:00 AM 34.5954 -65.4501 164° South 475 547 33,000  Level FlightAware Transoceanic
Tue 10:37:19 AM 35.2500 -65.6833 160° South 469 540 33,000  Level New York Oceanic (ODAPS)
Tue 10:38:00 AM 34.3733 -65.3718 164° South 469 540 33,000  Level FlightAware Transoceanic
Tue 10:38:27 AM 35.2500 -65.6833 160° South 469 540 33,000  Level New York Oceanic (ODAPS)
Tue 10:39:00 AM 34.2480 -65.3278 164° South 469 540 33,000 -3,830 Level FlightAware Transoceanic
Tue 10:39:14 AM 35.2500 -65.6833 160° South 469 540 30,000  Descending New York Oceanic (ODAPS)
Tue 10:40:00 AM 34.1227 -65.2840 164° South 469 540 33,000 1,698 Climbing FlightAware Transoceanic
Tue 10:41:00 AM 33.9974 -65.2402 164° South 469 540 33,000  Level FlightAware Transoceanic
Tue 10:42:00 AM 33.8720 -65.1966 164° South 469 540 33,000 -2,759 Level FlightAware Transoceanic
Tue 10:42:27 AM 35.2500 -65.6833 160° South 469 540 29,000  Descending New York Oceanic (ODAPS)
Tue 10:43:00 AM 33.8432 -65.0565 160° South 469 540 33,000 -1,348 Climbing FlightAware Transoceanic
Tue 10:43:56 AM 35.2500 -65.6833 160° South 469 540 27,000  Descending New York Oceanic (ODAPS)
Tue 10:44:00 AM 33.6595 -64.9763 160° South 469 540 33,000 2,813 Climbing FlightAware Transoceanic
Tue 10:45:00 AM 33.5370 -64.9230 160° South 469 540 30,000 -1,500 Descending FlightAware Transoceanic
Tue 10:46:00 AM 33.4144 -64.8698 160° South 469 540 30,000 -6,316 Level FlightAware Transoceanic
Tue 10:46:16 AM 35.2500 -65.6833 160° South 469 540 22,000  Descending New York Oceanic (ODAPS)
Tue 10:47:00 AM 33.2919 -64.8168 160° South 469 540 30,000 4,038 Climbing FlightAware Transoceanic
Tue 10:48:00 AM 33.1693 -64.7640 160° South 469 540 29,000 -7,385 Descending FlightAware Transoceanic
Tue 10:48:05 AM 35.2500 -65.6833 160° South 469 540 22,000  Descending New York Oceanic (ODAPS)
Tue 10:49:00 AM 33.0467 -64.7113 160° South 469 540 29,000 -1,698 Climbing FlightAware Transoceanic
Tue 10:49:51 AM 35.2500 -65.6833 160° South 469 540 19,000 -2,000 Descending New York Oceanic (ODAPS)
Tue 10:50:00 AM 32.9240 -64.6588 160° South 469 540 27,000 6,957 Climbing FlightAware Transoceanic
Tue 10:51:00 AM 32.8014 -64.6064 160° South 469 540 27,000 -2,500 Level FlightAware Transoceanic
Tue 10:52:00 AM 32.6787 -64.5541 160° South 469 540 22,000 -8,429 Descending FlightAware Transoceanic
Tue 10:52:24 AM 35.2500 -65.6833 160° South 469 540 15,200 -8,542 Descending New York Oceanic (ODAPS)
Tue 10:52:59 AM 35.2500 -65.6833 160° South 469 540 13,600 11,333 Descending New York Oceanic (ODAPS)
Tue 10:53:00 AM 32.5560 -64.5020 160° South 469 540 22,000 -1,778 Climbing FlightAware Transoceanic
Tue 10:53:53 AM 35.2500 -65.6833 160° South 469 540 12,000  Descending New York Oceanic (ODAPS)
Tue 10:54:00 AM 32.8514 -64.6277 160° South 469 540 22,000 8,955 Climbing FlightAware Transoceanic
Tue 10:55:00 AM 32.7469 -64.5831 160° South 469 540 22,000 -1,500 Level FlightAware Transoceanic
Tue 10:56:00 AM 32.6424 -64.5386 160° South 469 540 19,000 -10,857 Descending FlightAware Transoceanic
Tue 10:56:24 AM 35.2500 -65.6833 160° South 469 540 6,800  Descending New York Oceanic (ODAPS)
Tue 10:57:00 AM 32.5379 -64.4943 160° South 469 540 19,000 7,625 Climbing FlightAware Transoceanic
Tue 10:58:00 AM 32.4333 -64.4500 187° South 469 540 19,000 -11,538 Level FlightAware Transoceanic
Tue 10:58:18 AM 35.2500 -65.6833 160° South 469 540 4,000 -6,667 Descending New York Oceanic (ODAPS)
Tue 10:59:00 AM 34.5632 -65.4399 164° South  Level FlightAware Approximate
Tue 11:00:00 AM 34.5518 -65.4360 164° South  Level FlightAware Approximate
Tue 11:00:33 AM 35.2500 -65.6833 160° South 469 540 2,000  Level New York Oceanic (ODAPS)
Tue 11:01:00 AM 34.4516 -65.4010 164° South  Level FlightAware Approximate
Tue 11:02:00 AM 34.6901 -65.4823 164° South  Level FlightAware Approximate
Tue 11:03:00 AM 34.5899 -65.4473 164° South  Level FlightAware Approximate
Tue 11:04:00 AM 34.6800 -65.4788 164° South  Level FlightAware Approximate
Tue 11:05:00 AM 34.5799 -65.4439 164° South  Level FlightAware Approximate
Tue 11:06:00 AM 34.7051 -65.4876 164° South  Level FlightAware Approximate
Tue 11:07:00 AM 34.6049 -65.4526 164° South  Level FlightAware Approximate
Tue 11:08:00 AM 34.5047 -65.4177 164° South  Level FlightAware Approximate
Tue 11:09:00 AM 34.4045 -65.3829 164° South  Level FlightAware Approximate

Login

Don't have an account? Register now (free) for customized features, flight alerts, and more!